Aérodrome :
LOGIN :

S'inscrire | Disclaimer

   EN    FR    IT 

 










Légende :    VFR   VFR Marginal   IFR   IFR Intensif   IFR Très Intensif
Visi : 
Plafond : 
>= 8 km
>= 3000ft
5 à 8 km
1000 à 3000 ft
1500m à 5 km
500 à 1000 ft
800 à 1500m
200 à 500 ft
< 800m
< 200 ft
Symboles :   Orages  Brouillard  Fortes neiges  Fortes précipitations  Vent > 20 kt
SIGMETs :   Divers  Orages  Givrage  Turbulence  Onde Orograph.  Cendres Volcan.







- Altitude de l'aérodrome : 1115 ft
- Code IATA : GRZ


LOWG - Graz

DERNIER METAR :
  • 200850Z 16004KT 110V280 9999 FEW060 26/15 Q1017 NOSIG

METARs EXPIRÉS :
  • 200820Z 17004KT 110V230 CAVOK 24/15 Q1017 NOSIG
  • 200750Z 14003KT 070V210 CAVOK 24/15 Q1017 NOSIG
  • 200720Z 14003KT 080V210 CAVOK 23/15 Q1017 NOSIG
  • 200650Z 14003KT 110V200 CAVOK 21/15 Q1017 NOSIG
  • 200620Z VRB01KT CAVOK 20/15 Q1017 NOSIG

TAF TAF LOWG
Valide du 20 à 06h jusqu'au 21 à 06h UTC


200515Z 2006/2106 VRB02KT CAVOK TX31/2014Z TN17/2103Z
TEMPO 2010/2017 18010KT
TEMPO 2013/2016 9999 FEW070 FEW070CB SCT300
Pas de NOTAMs connus pour ce terrain.



MET'MAP, la Météo Aéronautique d'un coup d'oeil ! - Copyright ORBIFLY Décembre 2007 - Disclaimer

ORBIFLY MET'MAP TEAM :

Programmation & Développement : Alexandra Zaïnal
Conception & Développement : Baudouin d'Aumeries
Co-Programmation & Développement : Marc-Olivier Méhu
Soutien technique & logistique : Manuel Goepfert

Contact : metmap@orbifly.com




SOURCES & CREDITS :

   NOAA